Time;durP1;ratioP1;P1;durP2;ratioP2;P2;SDS_P1;SDS_P2;PMS_P1;PMS_P2;Temp;Humidity;BMP_temperature;BMP_pressure;BME280_temperature;BME280_humidity;BME280_pressure;Samples;Min_cycle;Max_cycle;Signal;HPM_P1;HPM_P2
2021/05/22 00:00:05;;;;;;;2.47;0.70;;;11.00;77.00;;;;;;4988552;28;20482;-77
2021/05/22 00:02:31;;;;;;;4.32;0.73;;;11.00;77.20;;;;;;4975670;28;20045;-78
2021/05/22 00:04:56;;;;;;;2.90;0.73;;;10.90;77.30;;;;;;4982594;28;20031;-77
2021/05/22 00:07:22;;;;;;;4.88;1.08;;;10.80;77.40;;;;;;4977343;28;20038;-76
2021/05/22 00:09:48;;;;;;;4.40;1.27;;;10.80;77.20;;;;;;4967734;28;20038;-77
2021/05/22 00:12:13;;;;;;;2.92;0.75;;;10.90;77.40;;;;;;4993909;28;20030;-77
2021/05/22 00:14:39;;;;;;;1.40;0.50;;;10.80;77.20;;;;;;4953586;28;20045;-77
2021/05/22 00:17:05;;;;;;;5.03;0.98;;;10.80;77.40;;;;;;4976832;28;20509;-76
2021/05/22 00:19:31;;;;;;;4.75;0.80;;;10.80;77.00;;;;;;4984322;28;20042;-76
2021/05/22 00:21:56;;;;;;;7.03;0.90;;;10.70;77.60;;;;;;4987259;28;20481;-76
2021/05/22 00:24:22;;;;;;;2.63;0.68;;;10.70;77.40;;;;;;4975637;28;20042;-77
2021/05/22 00:26:47;;;;;;;1.98;0.47;;;10.70;77.50;;;;;;4978725;28;20450;-76
2021/05/22 00:29:13;;;;;;;2.08;0.50;;;10.70;77.70;;;;;;4959778;28;20065;-76
2021/05/22 00:31:38;;;;;;;1.58;0.55;;;10.70;78.10;;;;;;4990983;28;20037;-77
2021/05/22 00:34:04;;;;;;;1.77;0.52;;;10.60;77.90;;;;;;4975940;28;20454;-76
2021/05/22 00:36:30;;;;;;;4.03;0.65;;;10.60;78.10;;;;;;4964458;28;20084;-77
2021/05/22 00:38:55;;;;;;;2.28;0.90;;;10.60;78.00;;;;;;4978124;28;20421;-76
2021/05/22 00:41:21;;;;;;;1.55;0.52;;;10.60;78.00;;;;;;4992017;28;20568;-77
2021/05/22 00:43:47;;;;;;;1.70;0.63;;;10.60;78.20;;;;;;4991893;28;20536;-77
2021/05/22 00:46:12;;;;;;;5.18;0.70;;;10.50;78.10;;;;;;4962194;28;20034;-76
2021/05/22 00:48:38;;;;;;;2.00;0.50;;;10.60;77.90;;;;;;4996042;28;20137;-76
2021/05/22 00:51:03;;;;;;;4.30;0.80;;;10.50;77.60;;;;;;4978712;28;20520;-77
2021/05/22 00:53:29;;;;;;;5.50;0.90;;;10.50;78.70;;;;;;4977042;28;20045;-77
2021/05/22 00:55:57;;;;;;;2.00;0.60;;;10.50;77.70;;;;;;4979026;28;20034;-77
2021/05/22 00:58:23;;;;;;;2.00;0.60;;;10.50;78.00;;;;;;4970816;28;20497;-77
2021/05/22 01:00:52;;;;;;;2.58;0.60;;;10.40;77.80;;;;;;4982174;28;20039;-77
2021/05/22 01:03:29;;;;;;;9.55;0.93;;;10.40;78.30;;;;;;4981431;28;20548;-77
2021/05/22 01:06:18;;;;;;;8.63;1.40;;;10.30;78.50;;;;;;4995869;28;20170;-77
2021/05/22 01:08:48;;;;;;;4.20;1.08;;;10.30;78.40;;;;;;4975829;28;20138;-76
2021/05/22 01:11:18;;;;;;;1.70;0.50;;;10.20;78.40;;;;;;4965041;28;20030;-77
2021/05/22 01:13:46;;;;;;;4.20;0.98;;;10.20;78.70;;;;;;4987141;28;20064;-76
2021/05/22 01:16:12;;;;;;;2.72;0.70;;;10.20;78.90;;;;;;4981061;28;20062;-76
2021/05/22 01:18:39;;;;;;;3.47;0.70;;;10.20;78.50;;;;;;4977773;28;20112;-77
2021/05/22 01:21:04;;;;;;;4.75;0.60;;;10.10;78.90;;;;;;4997439;28;20481;-76
2021/05/22 01:23:38;;;;;;;3.60;1.00;;;10.00;79.50;;;;;;4954161;28;20060;-76
2021/05/22 01:26:04;;;;;;;4.40;1.58;;;10.00;79.30;;;;;;5001529;28;20040;-77
2021/05/22 01:28:29;;;;;;;3.55;0.60;;;10.10;79.20;;;;;;4966447;28;20034;-76
2021/05/22 01:30:55;;;;;;;3.28;1.00;;;10.00;79.70;;;;;;4982458;28;20113;-76
2021/05/22 01:33:21;;;;;;;4.47;0.68;;;10.00;79.10;;;;;;4968754;28;20060;-76
2021/05/22 01:35:47;;;;;;;2.65;0.75;;;9.90;80.60;;;;;;4960426;28;20034;-76
2021/05/22 01:38:12;;;;;;;1.92;0.73;;;10.00;79.30;;;;;;4980265;28;20049;-77
2021/05/22 01:40:38;;;;;;;8.63;1.10;;;9.90;80.70;;;;;;4966321;28;20045;-76
2021/05/22 01:43:07;;;;;;;5.93;0.80;;;9.90;80.50;;;;;;4996578;28;20030;-77
2021/05/22 01:45:34;;;;;;;4.05;1.15;;;9.90;80.60;;;;;;4977661;28;20494;-76
2021/05/22 01:48:01;;;;;;;2.47;0.82;;;10.00;79.30;;;;;;4979927;28;20038;-76
2021/05/22 01:50:27;;;;;;;2.55;0.75;;;9.80;80.90;;;;;;4966567;28;20378;-76
2021/05/22 01:52:54;;;;;;;1.52;0.60;;;9.90;80.60;;;;;;4964207;28;20509;-77
2021/05/22 01:55:19;;;;;;;2.40;0.70;;;9.90;81.00;;;;;;4996841;28;20034;-77
2021/05/22 01:57:45;;;;;;;4.10;0.80;;;9.90;81.00;;;;;;4970876;28;20057;-76
2021/05/22 02:00:11;;;;;;;1.80;1.20;;;9.90;80.90;;;;;;4953200;28;20034;-76
2021/05/22 02:02:40;;;;;;;0.88;0.68;;;9.90;80.90;;;;;;4979595;28;20034;-76
2021/05/22 02:05:06;;;;;;;2.35;0.90;;;9.90;81.20;;;;;;4976492;28;20497;-77
2021/05/22 02:07:32;;;;;;;1.77;0.60;;;9.90;81.20;;;;;;4981412;28;20030;-76
2021/05/22 02:09:58;;;;;;;2.05;0.95;;;9.90;81.10;;;;;;4948367;28;20045;-76
2021/05/22 02:12:23;;;;;;;2.08;0.98;;;9.90;81.20;;;;;;4960494;28;20061;-76
2021/05/22 02:14:49;;;;;;;2.38;0.70;;;9.90;81.00;;;;;;4976925;28;20526;-76
2021/05/22 02:17:14;;;;;;;6.43;1.05;;;9.90;81.20;;;;;;4978013;28;20057;-77
2021/05/22 02:19:43;;;;;;;4.18;1.05;;;9.80;81.20;;;;;;4984293;28;20030;-76
2021/05/22 02:22:10;;;;;;;3.80;1.13;;;9.80;81.30;;;;;;5001746;28;20440;-76
2021/05/22 02:24:36;;;;;;;2.03;1.02;;;9.80;81.40;;;;;;4978977;28;20169;-77
2021/05/22 02:27:01;;;;;;;2.90;1.08;;;9.90;81.40;;;;;;4994068;28;20098;-77
2021/05/22 02:29:27;;;;;;;4.82;1.15;;;9.90;81.30;;;;;;4979249;28;20482;-78
2021/05/22 02:31:52;;;;;;;4.28;0.93;;;9.90;81.30;;;;;;4978615;28;20470;-77
2021/05/22 02:34:26;;;;;;;2.67;0.88;;;9.90;81.20;;;;;;4965069;28;20165;-76
2021/05/22 02:36:52;;;;;;;4.40;0.95;;;9.90;81.10;;;;;;4979922;28;20035;-76
2021/05/22 02:39:18;;;;;;;6.35;1.00;;;10.00;80.00;;;;;;4985888;28;20057;-76
2021/05/22 02:41:43;;;;;;;5.85;1.33;;;9.90;81.30;;;;;;4978432;28;20126;-76
2021/05/22 02:44:09;;;;;;;3.75;1.30;;;9.80;81.20;;;;;;4964430;28;20060;-76
2021/05/22 02:46:37;;;;;;;8.13;0.95;;;9.90;81.20;;;;;;4976624;28;20045;-76
2021/05/22 02:49:03;;;;;;;6.22;1.23;;;9.90;81.20;;;;;;4962495;28;20060;-76
2021/05/22 02:51:28;;;;;;;0.90;0.70;;;9.80;81.50;;;;;;4965008;28;20375;-77
2021/05/22 02:53:54;;;;;;;4.85;0.60;;;9.90;81.20;;;;;;4995325;28;20042;-76
2021/05/22 02:56:20;;;;;;;0.80;0.70;;;9.90;81.30;;;;;;4992234;28;20030;-77
2021/05/22 02:58:45;;;;;;;4.32;0.95;;;9.90;81.10;;;;;;4977342;28;20405;-76
2021/05/22 03:01:11;;;;;;;4.82;0.90;;;9.90;80.90;;;;;;4970209;28;20069;-76
2021/05/22 03:03:36;;;;;;;7.55;1.25;;;9.90;81.00;;;;;;4978153;28;20065;-76
2021/05/22 03:06:03;;;;;;;10.43;1.58;;;9.90;81.20;;;;;;4995053;28;20034;-76
2021/05/22 03:08:29;;;;;;;5.55;0.80;;;9.80;81.10;;;;;;4991829;28;20108;-77
2021/05/22 03:10:55;;;;;;;3.03;1.00;;;10.10;79.80;;;;;;4994317;28;20494;-76
2021/05/22 03:13:21;;;;;;;2.03;0.50;;;10.10;79.50;;;;;;4957429;28;20486;-76
2021/05/22 03:15:46;;;;;;;2.65;0.73;;;10.00;79.60;;;;;;4976819;28;20088;-76
2021/05/22 03:18:12;;;;;;;1.85;0.52;;;10.00;79.40;;;;;;4958687;28;20129;-76
2021/05/22 03:20:37;;;;;;;4.68;0.93;;;10.10;79.50;;;;;;4981664;28;20056;-76
2021/05/22 03:23:03;;;;;;;3.78;1.10;;;10.10;79.30;;;;;;4978115;28;20034;-76
2021/05/22 03:25:28;;;;;;;6.13;1.00;;;10.10;79.30;;;;;;4978720;28;20137;-76
2021/05/22 03:27:54;;;;;;;3.22;0.98;;;10.10;79.50;;;;;;4967848;28;21117;-76
2021/05/22 03:30:20;;;;;;;2.72;0.73;;;10.20;79.10;;;;;;4981780;28;20037;-76
2021/05/22 03:32:45;;;;;;;2.22;0.98;;;10.20;79.00;;;;;;4989751;28;20141;-76
2021/05/22 03:35:11;;;;;;;3.95;0.75;;;10.20;79.00;;;;;;4976615;28;20153;-76
2021/05/22 03:37:37;;;;;;;1.63;0.50;;;10.20;79.00;;;;;;4979232;28;20039;-76
2021/05/22 03:40:05;;;;;;;1.65;0.63;;;10.20;79.00;;;;;;4975265;28;20481;-76
2021/05/22 03:42:31;;;;;;;4.00;0.82;;;10.20;79.00;;;;;;4978456;28;20085;-76
2021/05/22 03:44:56;;;;;;;5.03;0.70;;;10.20;78.90;;;;;;4993314;28;20293;-76
2021/05/22 03:47:22;;;;;;;7.20;0.85;;;10.30;78.80;;;;;;4960621;28;20084;-76
2021/05/22 03:49:47;;;;;;;4.35;0.90;;;10.20;78.80;;;;;;4992668;28;20049;-76
2021/05/22 03:52:13;;;;;;;2.30;0.47;;;10.20;78.70;;;;;;4976949;28;20084;-76
2021/05/22 03:54:38;;;;;;;6.55;1.38;;;10.20;79.00;;;;;;4993608;28;20428;-76
2021/05/22 03:57:04;;;;;;;5.47;0.68;;;10.20;78.90;;;;;;4959035;28;20069;-76
2021/05/22 03:59:29;;;;;;;4.43;0.70;;;10.30;78.70;;;;;;4988378;28;20420;-76
2021/05/22 04:01:55;;;;;;;4.78;1.00;;;10.30;78.80;;;;;;4993366;28;20114;-76
2021/05/22 04:04:20;;;;;;;2.72;0.57;;;10.30;78.80;;;;;;4993714;28;20084;-76
2021/05/22 04:06:46;;;;;;;2.08;0.73;;;10.30;78.80;;;;;;4990357;28;20100;-76
2021/05/22 04:09:11;;;;;;;3.20;0.80;;;10.40;78.80;;;;;;4979111;28;20622;-76
2021/05/22 04:11:37;;;;;;;2.00;0.60;;;10.40;78.60;;;;;;4974377;28;20038;-77
2021/05/22 04:14:03;;;;;;;6.40;0.82;;;10.40;79.50;;;;;;4973274;28;20041;-76
2021/05/22 04:16:28;;;;;;;3.50;1.23;;;10.40;78.80;;;;;;4976850;28;20153;-76
2021/05/22 04:18:55;;;;;;;4.22;1.08;;;10.40;78.80;;;;;;4958779;28;20065;-76
2021/05/22 04:21:20;;;;;;;2.50;0.68;;;10.40;78.90;;;;;;4959974;28;20030;-76
2021/05/22 04:23:46;;;;;;;4.03;0.98;;;10.40;78.70;;;;;;4990043;28;20636;-76
2021/05/22 04:26:11;;;;;;;0.63;0.52;;;10.40;78.70;;;;;;4960557;28;20022;-76
2021/05/22 04:28:37;;;;;;;2.28;0.63;;;10.40;78.70;;;;;;4992780;28;20487;-76
2021/05/22 04:31:03;;;;;;;8.15;1.00;;;10.50;78.80;;;;;;4978762;28;20038;-76
2021/05/22 04:33:28;;;;;;;9.70;1.35;;;10.40;78.90;;;;;;4996024;28;20391;-76
2021/05/22 04:35:54;;;;;;;4.20;0.70;;;10.40;78.80;;;;;;4962553;28;20040;-76
2021/05/22 04:38:19;;;;;;;2.97;0.77;;;10.50;78.90;;;;;;4991400;28;20410;-76
2021/05/22 04:40:45;;;;;;;2.50;0.35;;;10.50;78.90;;;;;;4996518;28;20034;-76
2021/05/22 04:43:11;;;;;;;3.47;0.60;;;10.50;79.00;;;;;;4997596;28;20041;-76
2021/05/22 04:45:37;;;;;;;2.35;0.82;;;10.50;78.90;;;;;;4994363;28;20438;-76
2021/05/22 04:48:03;;;;;;;6.93;0.90;;;10.50;79.10;;;;;;4965042;28;20034;-76
2021/05/22 04:50:30;;;;;;;7.88;1.38;;;10.60;79.10;;;;;;4963258;28;20053;-76
2021/05/22 04:52:55;;;;;;;5.45;0.70;;;10.60;79.30;;;;;;4996179;28;20030;-75
2021/05/22 04:55:21;;;;;;;3.50;1.38;;;10.60;79.30;;;;;;4978752;28;20504;-75
2021/05/22 04:57:46;;;;;;;3.03;0.50;;;10.60;79.50;;;;;;4980827;28;20457;-76
2021/05/22 05:00:12;;;;;;;5.43;0.90;;;10.70;79.60;;;;;;4977896;28;20062;-76
2021/05/22 05:02:38;;;;;;;5.20;0.90;;;10.70;79.70;;;;;;4974595;28;20046;-76
2021/05/22 05:05:04;;;;;;;0.88;0.65;;;10.70;80.30;;;;;;4979420;28;20046;-76
2021/05/22 05:07:29;;;;;;;5.95;1.13;;;10.70;79.40;;;;;;4975850;28;20449;-75
2021/05/22 05:09:55;;;;;;;1.55;0.43;;;10.70;79.70;;;;;;4994887;28;20041;-76
2021/05/22 05:12:21;;;;;;;9.63;1.35;;;10.70;79.70;;;;;;4964741;28;20044;-76
2021/05/22 05:14:46;;;;;;;1.85;0.63;;;10.70;79.80;;;;;;4979592;28;20030;-76
2021/05/22 05:17:12;;;;;;;6.25;1.48;;;10.70;79.70;;;;;;4968295;28;20052;-76
2021/05/22 05:19:37;;;;;;;7.50;1.27;;;10.70;79.80;;;;;;4978092;28;20034;-76
2021/05/22 05:22:03;;;;;;;5.43;1.05;;;10.70;79.70;;;;;;4964559;28;20044;-76
2021/05/22 05:24:28;;;;;;;6.18;1.05;;;10.80;80.10;;;;;;4976939;28;20041;-76
2021/05/22 05:26:54;;;;;;;4.55;1.85;;;10.80;80.00;;;;;;4976168;28;20035;-76
2021/05/22 05:29:19;;;;;;;11.05;1.38;;;10.80;79.90;;;;;;4974891;28;20026;-76
2021/05/22 05:31:45;;;;;;;5.97;1.15;;;10.80;79.70;;;;;;4972570;28;20038;-76
2021/05/22 05:34:11;;;;;;;5.97;0.75;;;10.90;79.80;;;;;;4964865;28;20038;-77
2021/05/22 05:36:36;;;;;;;5.07;0.98;;;10.90;79.70;;;;;;4993232;28;20039;-76
2021/05/22 05:39:03;;;;;;;7.63;1.42;;;11.00;79.80;;;;;;4975702;28;20461;-77
2021/05/22 05:41:28;;;;;;;3.90;0.82;;;11.00;79.70;;;;;;4989231;28;20041;-76
2021/05/22 05:43:54;;;;;;;3.55;1.13;;;11.10;79.60;;;;;;4974732;28;20035;-77
2021/05/22 05:46:19;;;;;;;1.55;0.40;;;11.10;79.70;;;;;;4973216;28;20381;-77
2021/05/22 05:48:45;;;;;;;7.25;0.88;;;11.10;79.60;;;;;;4979775;28;20489;-76
2021/05/22 05:51:10;;;;;;;2.03;0.63;;;11.10;79.50;;;;;;4993647;28;20137;-76
2021/05/22 05:53:36;;;;;;;3.58;0.70;;;11.10;79.40;;;;;;4997094;28;20040;-77
2021/05/22 05:56:02;;;;;;;1.05;0.82;;;11.10;79.40;;;;;;4981192;28;20066;-77
2021/05/22 05:58:28;;;;;;;7.68;1.05;;;11.20;79.40;;;;;;4996536;28;20050;-77
2021/05/22 06:00:53;;;;;;;6.38;0.85;;;11.20;79.40;;;;;;4995367;28;20049;-77
2021/05/22 06:03:28;;;;;;;11.30;1.75;;;11.20;79.30;;;;;;4979065;28;20088;-77
2021/05/22 06:05:54;;;;;;;4.80;0.63;;;11.20;79.40;;;;;;4980394;28;20026;-77
2021/05/22 06:08:20;;;;;;;5.22;1.00;;;11.20;79.20;;;;;;4976062;28;20046;-77
2021/05/22 06:10:48;;;;;;;3.28;0.68;;;11.20;79.30;;;;;;4971708;28;20457;-77
2021/05/22 06:13:29;;;;;;;3.97;1.02;;;11.20;79.40;;;;;;4965348;28;20041;-77
2021/05/22 06:16:02;;;;;;;2.28;0.57;;;11.20;80.00;;;;;;4995840;28;20058;-77
2021/05/22 06:18:32;;;;;;;4.18;0.70;;;11.20;81.40;;;;;;4992063;28;20038;-77
2021/05/22 06:20:58;;;;;;;2.45;0.65;;;11.10;81.60;;;;;;4982420;28;20038;-77
2021/05/22 06:23:23;;;;;;;6.30;0.77;;;11.10;81.80;;;;;;4978249;28;20030;-77
2021/05/22 06:25:49;;;;;;;4.05;0.60;;;11.10;81.90;;;;;;4983363;28;20045;-77
2021/05/22 06:28:15;;;;;;;2.55;0.57;;;11.00;82.10;;;;;;4982039;28;20226;-77
2021/05/22 06:30:41;;;;;;;4.93;0.68;;;11.00;82.20;;;;;;4987151;28;20025;-77
2021/05/22 06:33:06;;;;;;;3.92;0.70;;;11.00;82.30;;;;;;4968201;28;20515;-76
2021/05/22 06:35:32;;;;;;;1.88;0.60;;;11.00;82.20;;;;;;4996516;28;20029;-76
2021/05/22 06:37:57;;;;;;;3.33;0.50;;;11.00;82.30;;;;;;4990871;28;20030;-77
2021/05/22 06:40:24;;;;;;;1.20;0.50;;;10.90;82.90;;;;;;4996584;28;20034;-77
2021/05/22 06:42:49;;;;;;;1.65;0.68;;;10.90;83.70;;;;;;4971925;28;20089;-78
2021/05/22 06:45:16;;;;;;;5.80;0.98;;;10.90;84.50;;;;;;4979642;28;20048;-77
2021/05/22 06:47:43;;;;;;;6.78;0.63;;;10.80;84.80;;;;;;4987546;28;20054;-77
2021/05/22 06:50:09;;;;;;;7.78;0.90;;;10.90;85.10;;;;;;4995180;28;20050;-77
2021/05/22 06:52:35;;;;;;;1.50;0.73;;;10.90;85.10;;;;;;4962779;28;20030;-77
2021/05/22 06:55:00;;;;;;;2.78;0.98;;;10.90;85.50;;;;;;4993541;28;20083;-78
2021/05/22 06:57:26;;;;;;;7.43;0.88;;;10.90;85.50;;;;;;4979033;28;20434;-78
2021/05/22 06:59:53;;;;;;;3.38;0.77;;;10.90;85.60;;;;;;4977512;28;20050;-78
2021/05/22 07:02:18;;;;;;;8.73;0.90;;;10.80;86.00;;;;;;4981527;28;20435;-78
2021/05/22 07:04:44;;;;;;;4.03;0.70;;;10.80;86.30;;;;;;4982610;28;20116;-78
2021/05/22 07:07:09;;;;;;;8.23;0.90;;;10.80;86.30;;;;;;4989708;28;20035;-78
2021/05/22 07:09:35;;;;;;;2.85;0.70;;;10.80;87.20;;;;;;4980942;28;20030;-78
2021/05/22 07:12:00;;;;;;;2.38;0.60;;;10.80;86.60;;;;;;4995895;28;20033;-78
2021/05/22 07:14:26;;;;;;;1.83;0.80;;;10.80;86.90;;;;;;4980619;28;20042;-78
2021/05/22 07:16:54;;;;;;;2.03;0.52;;;10.80;86.80;;;;;;4968252;28;20084;-78
2021/05/22 07:19:20;;;;;;;2.50;0.57;;;10.80;87.20;;;;;;4993238;28;20404;-78
2021/05/22 07:21:45;;;;;;;1.38;0.50;;;10.80;87.90;;;;;;4971060;28;20148;-78
2021/05/22 07:24:11;;;;;;;5.05;0.95;;;10.80;87.30;;;;;;4966682;28;20054;-78
2021/05/22 07:26:37;;;;;;;13.90;1.40;;;10.80;87.10;;;;;;4996711;28;20120;-78
2021/05/22 07:29:03;;;;;;;12.10;1.40;;;10.70;87.40;;;;;;4993793;28;20128;-78
2021/05/22 07:31:29;;;;;;;3.05;0.60;;;10.70;87.70;;;;;;4965054;28;20033;-78
2021/05/22 07:33:55;;;;;;;6.43;0.82;;;10.70;87.60;;;;;;4965401;28;20658;-77
2021/05/22 07:36:20;;;;;;;4.15;0.98;;;10.70;87.10;;;;;;4991296;28;20062;-77
2021/05/22 07:38:46;;;;;;;5.97;1.20;;;10.70;87.00;;;;;;4984742;28;20050;-78
2021/05/22 07:41:11;;;;;;;2.63;1.05;;;10.70;86.70;;;;;;4967105;28;20060;-77
2021/05/22 07:43:37;;;;;;;3.40;0.95;;;10.80;86.40;;;;;;4992931;28;20461;-76
2021/05/22 07:46:03;;;;;;;1.88;0.40;;;10.80;86.10;;;;;;4978170;28;20109;-76
2021/05/22 07:48:30;;;;;;;2.33;0.52;;;10.80;85.50;;;;;;4965022;28;20049;-76
2021/05/22 07:50:56;;;;;;;1.23;0.35;;;10.80;85.30;;;;;;4990872;28;20026;-76
2021/05/22 07:53:21;;;;;;;3.50;0.47;;;10.90;85.40;;;;;;4962031;28;20030;-76
2021/05/22 07:55:47;;;;;;;1.08;0.52;;;10.90;85.40;;;;;;4979934;28;20599;-76
2021/05/22 07:58:15;;;;;;;1.25;0.60;;;10.90;85.30;;;;;;4961195;28;20058;-76
2021/05/22 08:00:41;;;;;;;5.15;0.70;;;10.90;85.20;;;;;;4993991;28;20045;-76
2021/05/22 08:03:07;;;;;;;4.60;0.60;;;10.90;85.10;;;;;;4968498;28;20297;-76
2021/05/22 08:05:32;;;;;;;3.15;1.10;;;11.00;85.50;;;;;;4976137;28;20069;-76
2021/05/22 08:07:58;;;;;;;3.83;0.68;;;11.00;86.00;;;;;;4965478;28;20026;-76
2021/05/22 08:10:23;;;;;;;1.05;0.40;;;11.00;86.50;;;;;;4967155;28;20086;-76
2021/05/22 08:12:49;;;;;;;5.20;0.60;;;10.90;86.70;;;;;;4982333;28;20038;-76
2021/05/22 08:15:14;;;;;;;2.45;1.48;;;11.00;86.70;;;;;;4963616;28;20063;-77
2021/05/22 08:17:41;;;;;;;2.03;0.40;;;10.90;86.90;;;;;;4965762;28;20038;-77
2021/05/22 08:20:09;;;;;;;2.22;0.70;;;10.90;87.20;;;;;;4982645;28;20504;-77
2021/05/22 08:22:35;;;;;;;1.83;0.40;;;10.90;87.30;;;;;;4994586;28;20410;-77
2021/05/22 08:25:00;;;;;;;2.15;0.57;;;10.90;88.20;;;;;;4998468;28;20153;-77
2021/05/22 08:27:26;;;;;;;2.92;0.70;;;10.80;88.50;;;;;;4968354;28;20040;-77
2021/05/22 08:29:51;;;;;;;1.80;0.60;;;10.80;88.70;;;;;;4967806;28;20030;-77
2021/05/22 08:32:17;;;;;;;2.90;0.50;;;10.80;89.00;;;;;;4970379;28;20042;-79
2021/05/22 08:34:42;;;;;;;3.15;0.50;;;10.80;89.10;;;;;;4971039;28;20137;-80
2021/05/22 08:37:10;;;;;;;3.15;0.98;;;10.80;89.30;;;;;;4962684;28;20368;-81
2021/05/22 08:39:37;;;;;;;0.55;0.20;;;10.70;89.60;;;;;;4981595;28;20034;-80
2021/05/22 08:42:03;;;;;;;3.92;0.68;;;10.70;90.00;;;;;;4982180;28;20581;-80
2021/05/22 08:44:28;;;;;;;3.08;0.65;;;10.80;89.50;;;;;;4982007;28;20053;-80
2021/05/22 08:46:54;;;;;;;4.38;0.45;;;10.80;90.40;;;;;;4983355;28;20397;-79
2021/05/22 08:49:19;;;;;;;2.20;0.40;;;10.80;90.20;;;;;;4987409;28;20038;-80
2021/05/22 08:51:45;;;;;;;4.78;0.70;;;10.80;90.30;;;;;;4969886;28;20042;-80
2021/05/22 08:54:11;;;;;;;2.35;0.52;;;10.80;90.30;;;;;;4960613;28;20039;-81
2021/05/22 08:56:36;;;;;;;1.50;0.50;;;10.80;90.50;;;;;;4974665;28;20410;-81
2021/05/22 08:59:02;;;;;;;1.10;0.50;;;10.70;90.90;;;;;;4962463;28;20041;-80
2021/05/22 09:01:28;;;;;;;5.97;1.25;;;10.60;91.00;;;;;;4996877;28;20033;-81
2021/05/22 09:03:56;;;;;;;2.10;0.70;;;10.60;91.20;;;;;;4968626;28;20073;-80
2021/05/22 09:06:22;;;;;;;1.98;1.05;;;10.60;91.30;;;;;;4980963;28;20037;-81
2021/05/22 09:09:02;;;;;;;4.60;1.02;;;10.60;91.30;;;;;;4968953;28;20026;-81
2021/05/22 09:11:28;;;;;;;7.72;1.00;;;10.70;91.60;;;;;;4952066;28;20058;-81
2021/05/22 09:13:53;;;;;;;5.60;1.30;;;10.60;91.50;;;;;;4961283;28;20410;-81
2021/05/22 09:16:21;;;;;;;5.30;1.23;;;10.60;91.60;;;;;;4994300;28;20019;-80
2021/05/22 09:18:46;;;;;;;2.45;0.65;;;10.50;91.90;;;;;;4963211;28;20393;-81
2021/05/22 09:21:12;;;;;;;2.00;0.47;;;10.60;91.70;;;;;;4999227;28;20034;-81
2021/05/22 09:23:40;;;;;;;5.18;0.40;;;10.60;91.90;;;;;;4980329;28;20510;-81
2021/05/22 09:26:09;;;;;;;5.53;0.60;;;10.50;91.90;;;;;;4995090;28;20033;-81
2021/05/22 09:28:40;;;;;;;0.75;0.38;;;10.60;92.10;;;;;;4968770;28;20026;-81
2021/05/22 09:31:08;;;;;;;2.25;0.93;;;10.50;92.30;;;;;;4985680;28;20042;-80
2021/05/22 09:33:35;;;;;;;1.98;0.55;;;10.60;92.40;;;;;;4996567;28;20031;-81
2021/05/22 09:36:06;;;;;;;2.67;0.75;;;10.50;92.30;;;;;;4982379;28;20484;-81
2021/05/22 09:38:42;;;;;;;2.58;0.70;;;10.60;92.40;;;;;;4969159;28;20073;-81
2021/05/22 09:41:14;;;;;;;2.70;0.50;;;10.60;92.40;;;;;;4986665;28;20031;-81
2021/05/22 09:43:40;;;;;;;2.13;0.50;;;10.50;92.60;;;;;;4983133;28;20048;-81
2021/05/22 09:46:09;;;;;;;1.20;0.52;;;10.60;92.60;;;;;;4979908;28;20393;-81
2021/05/22 09:48:36;;;;;;;4.53;0.73;;;10.70;92.60;;;;;;4981952;28;20089;-81
2021/05/22 09:51:02;;;;;;;1.52;0.60;;;10.70;92.50;;;;;;4967985;28;20501;-81
2021/05/22 09:53:35;;;;;;;8.18;1.35;;;10.80;92.60;;;;;;5004288;28;20031;-82
2021/05/22 09:56:22;;;;;;;5.53;0.60;;;10.90;92.60;;;;;;4994943;28;20069;-83
2021/05/22 09:59:11;;;;;;;1.55;0.90;;;11.00;92.60;;;;;;4998374;28;20018;-83
2021/05/22 10:01:41;;;;;;;1.48;0.63;;;11.10;92.50;;;;;;5003251;28;20027;-84
2021/05/22 10:04:17;;;;;;;6.22;1.20;;;11.20;92.30;;;;;;4995671;28;20058;-83
2021/05/22 10:06:42;;;;;;;5.68;1.08;;;11.30;92.30;;;;;;4988673;28;20034;-84
2021/05/22 10:09:15;;;;;;;4.78;0.80;;;11.50;92.10;;;;;;5010702;28;20066;-84
2021/05/22 10:12:03;;;;;;;3.78;0.98;;;11.40;92.20;;;;;;4998552;28;20034;-84
2021/05/22 10:14:34;;;;;;;2.70;0.80;;;11.40;92.10;;;;;;4983945;28;20041;-83
2021/05/22 10:17:02;;;;;;;7.28;1.40;;;11.40;92.00;;;;;;4977141;28;20065;-84
2021/05/22 10:19:28;;;;;;;4.85;0.88;;;11.50;92.10;;;;;;5013343;28;20064;-83
2021/05/22 10:21:53;;;;;;;4.25;0.50;;;11.50;91.80;;;;;;4981718;28;20038;-84
2021/05/22 10:24:19;;;;;;;4.40;0.77;;;11.60;92.00;;;;;;4992509;28;20030;-85
2021/05/22 10:26:45;;;;;;;4.85;0.90;;;11.50;92.00;;;;;;5009403;28;20046;-83
2021/05/22 10:29:11;;;;;;;4.40;0.40;;;11.40;92.10;;;;;;4989182;28;20438;-84
2021/05/22 10:31:40;;;;;;;5.97;1.00;;;11.50;92.10;;;;;;4995463;28;20042;-83
2021/05/22 10:34:20;;;;;;;3.67;0.75;;;11.60;92.20;;;;;;4994315;28;20041;-83
2021/05/22 10:36:47;;;;;;;7.93;1.30;;;11.60;92.20;;;;;;5001386;28;20180;-85
2021/05/22 10:39:42;;;;;;;4.55;1.30;;;11.80;92.10;;;;;;4975276;28;20037;-84
2021/05/22 10:42:20;;;;;;;6.10;1.02;;;11.80;92.00;;;;;;5005209;28;20531;-83
2021/05/22 10:44:46;;;;;;;2.63;0.90;;;11.70;92.00;;;;;;4985678;28;20464;-82
2021/05/22 10:47:17;;;;;;;1.90;0.70;;;11.90;91.90;;;;;;4988391;28;20038;-83
2021/05/22 10:49:59;;;;;;;3.15;1.27;;;11.80;92.00;;;;;;5003921;28;20056;-82
2021/05/22 10:52:35;;;;;;;6.60;1.10;;;11.80;92.20;;;;;;4965421;28;20093;-82
2021/05/22 10:55:03;;;;;;;4.30;1.00;;;11.70;92.40;;;;;;4984914;28;20038;-82
2021/05/22 10:57:29;;;;;;;3.63;0.80;;;11.60;92.70;;;;;;4994573;28;20034;-81
2021/05/22 11:00:14;;;;;;;3.85;1.00;;;11.70;92.50;;;;;;4975976;28;20030;-82
2021/05/22 11:02:41;;;;;;;1.67;0.80;;;11.80;92.80;;;;;;4996292;28;20041;-80
2021/05/22 11:05:28;;;;;;;4.43;1.10;;;11.80;92.40;;;;;;4972474;28;20034;-81
2021/05/22 11:08:19;;;;;;;;;;;11.80;92.90;;;;;;5000793;28;20497;-81
2021/05/22 11:10:49;;;;;;;9.68;1.17;;;12.10;92.90;;;;;;4302790;28;10000542;-81
2021/05/22 11:13:20;;;;;;;4.55;1.00;;;12.20;92.60;;;;;;4982965;28;20574;-81
2021/05/22 11:15:54;;;;;;;6.05;0.82;;;12.20;92.40;;;;;;4995850;28;20161;-81
2021/05/22 11:18:40;;;;;;;4.03;0.90;;;12.10;92.40;;;;;;4974959;28;20293;-81
2021/05/22 11:21:14;;;;;;;1.13;0.65;;;12.10;92.70;;;;;;4990229;28;20034;-81
2021/05/22 11:24:01;;;;;;;5.82;1.20;;;12.20;92.50;;;;;;4979739;28;20125;-80
2021/05/22 11:26:55;;;;;;;4.22;0.90;;;12.00;92.80;;;;;;4995152;28;20072;-80
2021/05/22 11:29:21;;;;;;;5.53;1.13;;;11.90;93.40;;;;;;4993691;28;20035;-80
2021/05/22 11:31:47;;;;;;;4.00;0.75;;;12.10;93.30;;;;;;4988084;28;20488;-81
2021/05/22 11:34:25;;;;;;;3.53;0.77;;;12.10;93.10;;;;;;4996711;28;20038;-80
2021/05/22 11:37:09;;;;;;;4.88;1.20;;;12.20;93.20;;;;;;4999145;28;20088;-81
2021/05/22 11:39:47;;;;;;;6.88;1.63;;;12.10;93.40;;;;;;4995051;28;20041;-81
2021/05/22 11:42:32;;;;;;;3.63;1.00;;;12.40;93.00;;;;;;4964918;28;20038;-81
2021/05/22 11:44:58;;;;;;;2.60;0.70;;;12.50;93.20;;;;;;4973554;28;20034;-81
2021/05/22 11:47:31;;;;;;;2.53;1.30;;;12.50;92.70;;;;;;4982885;28;20045;-81
2021/05/22 11:49:57;;;;;;;6.18;1.17;;;12.40;93.10;;;;;;4979688;28;20053;-81
2021/05/22 11:52:30;;;;;;;4.97;1.52;;;12.50;93.10;;;;;;4982462;28;20081;-81
2021/05/22 11:54:56;;;;;;;4.55;1.10;;;12.40;92.80;;;;;;4983302;28;20088;-81
2021/05/22 11:57:22;;;;;;;3.90;1.20;;;12.20;92.90;;;;;;4969128;28;20046;-81
2021/05/22 11:59:48;;;;;;;3.00;0.77;;;12.30;92.90;;;;;;4980131;28;20052;-81
2021/05/22 12:02:13;;;;;;;6.63;1.10;;;12.30;92.70;;;;;;4983247;28;20025;-81
2021/05/22 12:04:49;;;;;;;2.17;0.95;;;12.10;93.20;;;;;;4966898;28;20540;-81
2021/05/22 12:07:15;;;;;;;2.03;0.75;;;12.10;93.10;;;;;;4995099;28;20500;-81
2021/05/22 12:09:40;;;;;;;1.70;0.93;;;12.10;93.20;;;;;;4972661;28;20043;-81
2021/05/22 12:12:10;;;;;;;2.47;1.20;;;12.10;93.30;;;;;;4960579;28;20542;-82
2021/05/22 12:14:44;;;;;;;2.55;0.75;;;12.10;93.10;;;;;;4972746;28;20039;-81
2021/05/22 12:17:10;;;;;;;8.63;1.63;;;12.00;93.40;;;;;;4977630;28;20046;-81
2021/05/22 12:19:37;;;;;;;4.65;0.80;;;12.00;93.40;;;;;;4980509;28;20493;-81
2021/05/22 12:22:02;;;;;;;7.07;1.55;;;12.00;93.00;;;;;;4980289;28;20121;-81
2021/05/22 12:24:28;;;;;;;1.27;0.65;;;12.00;93.20;;;;;;4975232;28;20552;-82
2021/05/22 12:26:55;;;;;;;6.20;1.60;;;11.90;93.30;;;;;;4997396;28;20131;-81
2021/05/22 12:29:22;;;;;;;4.20;1.25;;;12.00;93.40;;;;;;4997623;28;20018;-83
2021/05/22 12:31:49;;;;;;;2.90;1.02;;;12.00;93.20;;;;;;5014476;28;20043;-82
2021/05/22 12:34:15;;;;;;;1.20;0.65;;;12.00;93.10;;;;;;4985887;28;20060;-82
2021/05/22 12:37:02;;;;;;;6.47;1.48;;;11.90;93.20;;;;;;4979622;28;20477;-82
2021/05/22 12:39:32;;;;;;;3.20;1.73;;;12.10;93.30;;;;;;4994184;28;20513;-81
2021/05/22 12:41:58;;;;;;;5.75;1.73;;;12.10;93.30;;;;;;4982322;28;20107;-81
2021/05/22 12:44:23;;;;;;;5.03;1.38;;;12.20;93.30;;;;;;4994371;28;20948;-82
2021/05/22 12:46:58;;;;;;;5.20;1.20;;;12.30;93.40;;;;;;4988716;28;20026;-81
2021/05/22 12:49:31;;;;;;;3.87;0.97;;;12.30;93.20;;;;;;4976677;28;20038;-82